createdAt,value
2023-03-02T00:00:56.960Z,101548.39
2023-03-02T00:04:04.525Z,101553.48
2023-03-02T00:07:11.506Z,101555.21
2023-03-02T00:10:17.139Z,101551.80
2023-03-02T00:13:25.637Z,101549.48
2023-03-02T00:16:31.310Z,101547.59
2023-03-02T00:19:40.024Z,101552.70
2023-03-02T00:22:46.728Z,101549.23
2023-03-02T00:25:52.245Z,101550.31
2023-03-02T00:28:57.726Z,101552.43
2023-03-02T00:32:03.896Z,101545.63
2023-03-02T00:35:12.060Z,101542.23
2023-03-02T00:38:17.482Z,101540.26
2023-03-02T00:41:23.237Z,101540.10
2023-03-02T00:44:28.676Z,101542.75
2023-03-02T00:47:35.933Z,101543.86
2023-03-02T00:50:44.418Z,101543.18
2023-03-02T00:54:07.447Z,101541.88
2023-03-02T00:57:13.273Z,101537.40
2023-03-02T01:00:19.643Z,101531.84
2023-03-02T01:03:26.363Z,101528.17
2023-03-02T01:06:35.795Z,101523.90
2023-03-02T01:09:42.333Z,101517.83
2023-03-02T01:12:50.537Z,101514.79
2023-03-02T01:16:02.337Z,101510.80
2023-03-02T01:19:07.980Z,101505.11
2023-03-02T01:22:16.406Z,101502.89
2023-03-02T01:25:24.118Z,101502.27
2023-03-02T01:28:29.867Z,101502.55
2023-03-02T01:31:35.508Z,101506.44
2023-03-02T01:34:40.772Z,101499.08
2023-03-02T01:37:46.406Z,101497.48
2023-03-02T01:40:52.036Z,101498.73
2023-03-02T01:44:10.579Z,101495.91
2023-03-02T01:47:19.155Z,101493.37
2023-03-02T01:50:47.217Z,101488.54
2023-03-02T01:53:55.592Z,101482.67
2023-03-02T01:57:04.343Z,101480.06
2023-03-02T02:00:13.096Z,101476.52
2023-03-02T02:03:22.169Z,101471.94
2023-03-02T02:06:31.774Z,101469.34
2023-03-02T02:09:40.194Z,101465.48
2023-03-02T02:12:49.111Z,101462.31
2023-03-02T02:15:54.421Z,101454.86
2023-03-02T02:18:59.971Z,101453.27
2023-03-02T02:22:05.750Z,101453.08
2023-03-02T02:25:18.035Z,101452.25
2023-03-02T02:28:26.234Z,101454.73
2023-03-02T02:31:36.485Z,101455.80
2023-03-02T02:34:43.587Z,101456.58
2023-03-02T02:37:51.141Z,101452.56
2023-03-02T02:41:02.034Z,101453.20
2023-03-02T02:44:11.077Z,101455.41
2023-03-02T02:47:18.950Z,101452.83
2023-03-02T02:50:28.065Z,101454.63
2023-03-02T02:53:39.594Z,101444.75
2023-03-02T02:56:45.710Z,101443.88
2023-03-02T02:59:53.562Z,101445.16
2023-03-02T03:03:03.584Z,101452.23
2023-03-02T03:06:14.654Z,101456.48
2023-03-02T03:09:20.485Z,101460.55
2023-03-02T03:12:30.220Z,101461.06
2023-03-02T03:15:39.072Z,101459.02
2023-03-02T03:18:48.189Z,101458.83
2023-03-02T03:21:55.276Z,101459.85
2023-03-02T03:25:04.235Z,101455.86
2023-03-02T03:28:10.233Z,101459.65
2023-03-02T03:31:16.346Z,101455.63
2023-03-02T03:34:22.216Z,101456.19
2023-03-02T03:37:27.990Z,101449.67
2023-03-02T03:40:34.902Z,101449.38
2023-03-02T03:43:40.913Z,101442.63
2023-03-02T03:46:57.509Z,101448.38
2023-03-02T03:50:23.547Z,101452.41
2023-03-02T03:53:29.387Z,101454.49
2023-03-02T03:56:45.935Z,101454.37
2023-03-02T03:59:51.977Z,101455.73
2023-03-02T04:02:57.810Z,101455.00
2023-03-02T04:06:06.496Z,101456.95
2023-03-02T04:09:15.601Z,101455.66
2023-03-02T04:12:21.313Z,101455.10
2023-03-02T04:15:30.245Z,101455.86
2023-03-02T04:18:37.024Z,101459.02
2023-03-02T04:21:46.055Z,101460.10
2023-03-02T04:24:52.535Z,101461.62
2023-03-02T04:27:58.382Z,101464.22
2023-03-02T04:31:07.807Z,101461.69
2023-03-02T04:34:13.444Z,101467.65
2023-03-02T04:37:21.503Z,101465.20
2023-03-02T04:40:27.250Z,101467.46
2023-03-02T04:43:35.003Z,101465.73
2023-03-02T04:46:44.795Z,101462.67
2023-03-02T04:49:54.798Z,101455.52
2023-03-02T04:53:00.624Z,101460.06
2023-03-02T04:56:09.541Z,101461.23
2023-03-02T04:59:20.885Z,101461.67
2023-03-02T05:02:26.372Z,101458.60
2023-03-02T05:05:32.689Z,101460.92
2023-03-02T05:08:38.541Z,101464.70
2023-03-02T05:11:46.458Z,101463.52
2023-03-02T05:14:54.284Z,101466.56
2023-03-02T05:18:03.417Z,101466.77
2023-03-02T05:21:11.661Z,101467.42
2023-03-02T05:24:17.476Z,101465.42
2023-03-02T05:27:23.187Z,101465.79
2023-03-02T05:30:29.380Z,101467.33
2023-03-02T05:33:35.128Z,101471.78
2023-03-02T05:36:41.015Z,101471.73
2023-03-02T05:39:48.890Z,101472.52
2023-03-02T05:42:57.433Z,101477.71
2023-03-02T05:46:05.215Z,101476.71
2023-03-02T05:49:13.748Z,101479.14
2023-03-02T05:52:21.472Z,101486.84
2023-03-02T05:55:30.398Z,101487.91
2023-03-02T05:58:44.981Z,101490.20
2023-03-02T06:01:50.523Z,101490.94
2023-03-02T06:04:58.253Z,101496.50
2023-03-02T06:08:09.609Z,101502.05
2023-03-02T06:11:27.571Z,101504.91
2023-03-02T06:14:41.556Z,101503.34
2023-03-02T06:17:49.551Z,101503.13
2023-03-02T06:21:06.384Z,101503.34
2023-03-02T06:24:16.305Z,101505.39
2023-03-02T06:27:30.758Z,101508.73
2023-03-02T06:30:41.183Z,101509.45
2023-03-02T06:33:49.026Z,101513.09
2023-03-02T06:36:55.266Z,101511.98
2023-03-02T06:40:00.900Z,101514.97
2023-03-02T06:43:06.446Z,101523.78
2023-03-02T06:46:12.232Z,101525.52
2023-03-02T06:49:20.168Z,101527.51
2023-03-02T06:52:28.418Z,101524.44
2023-03-02T06:55:41.676Z,101524.77
2023-03-02T06:58:49.654Z,101528.81
2023-03-02T07:02:04.314Z,101531.70
2023-03-02T07:05:12.520Z,101533.09
2023-03-02T07:08:18.092Z,101536.05
2023-03-02T07:11:23.943Z,101537.30
2023-03-02T07:14:29.304Z,101534.61
2023-03-02T07:17:34.968Z,101534.94
2023-03-02T07:20:52.457Z,101533.52
2023-03-02T07:24:02.444Z,101528.78
2023-03-02T07:27:10.532Z,101530.54
2023-03-02T07:30:21.353Z,101524.67
2023-03-02T07:33:38.027Z,101522.41
2023-03-02T07:36:46.578Z,101518.02
2023-03-02T07:39:52.078Z,101514.22
2023-03-02T07:42:57.575Z,101517.34
2023-03-02T07:46:05.962Z,101514.94
2023-03-02T07:49:14.474Z,101510.78
2023-03-02T07:52:20.262Z,101510.88
2023-03-02T07:55:28.852Z,101513.69
2023-03-02T07:58:35.324Z,101510.80
2023-03-02T08:01:41.020Z,101510.23
2023-03-02T08:04:51.244Z,101512.20
2023-03-02T08:07:59.231Z,101511.59
2023-03-02T08:11:29.394Z,101506.42
2023-03-02T08:14:48.263Z,101502.27
2023-03-02T08:17:54.070Z,101496.38
2023-03-02T08:21:14.096Z,101495.50
2023-03-02T08:24:19.764Z,101496.70
2023-03-02T08:27:25.231Z,101488.80
2023-03-02T08:30:33.424Z,101485.25
2023-03-02T08:33:39.089Z,101485.40
2023-03-02T08:36:49.144Z,101482.09
2023-03-02T08:39:57.524Z,101481.61
2023-03-02T08:43:08.197Z,101479.46
2023-03-02T08:46:18.527Z,101475.21
2023-03-02T08:49:24.104Z,101475.81
2023-03-02T08:52:29.589Z,101477.77
2023-03-02T08:55:40.469Z,101475.05
2023-03-02T08:58:46.292Z,101467.95
2023-03-02T09:02:01.463Z,101458.52
2023-03-02T09:05:12.311Z,101454.19
2023-03-02T09:08:18.093Z,101447.40
2023-03-02T09:11:23.645Z,101450.23
2023-03-02T09:14:29.124Z,101448.75
2023-03-02T09:17:37.615Z,101455.02
2023-03-02T09:20:43.307Z,101449.73
2023-03-02T09:23:48.796Z,101452.29
2023-03-02T09:26:54.872Z,101450.04
2023-03-02T09:30:00.351Z,101453.29
2023-03-02T09:33:09.231Z,101458.80
2023-03-02T09:36:19.404Z,101456.55
2023-03-02T09:39:32.562Z,101450.21
2023-03-02T09:42:55.435Z,101446.90
2023-03-02T09:46:05.253Z,101447.91
2023-03-02T09:49:19.983Z,101447.20
2023-03-02T09:52:31.094Z,101443.60
2023-03-02T09:55:38.066Z,101443.17
2023-03-02T09:58:46.340Z,101444.73
2023-03-02T10:01:54.320Z,101445.11
2023-03-02T10:05:00.839Z,101445.56
2023-03-02T10:08:06.741Z,101452.48
2023-03-02T10:11:15.694Z,101449.63
2023-03-02T10:14:23.662Z,101450.88
2023-03-02T10:17:35.105Z,101454.82
2023-03-02T10:20:46.531Z,101458.48
2023-03-02T10:24:18.858Z,101457.27
2023-03-02T10:27:26.271Z,101453.40
2023-03-02T10:30:35.409Z,101450.15
2023-03-02T10:33:42.028Z,101448.56
2023-03-02T10:36:49.621Z,101445.64
2023-03-02T10:39:55.539Z,101439.34
2023-03-02T10:43:01.388Z,101435.79
2023-03-02T10:46:08.780Z,101436.89
2023-03-02T10:49:26.423Z,101438.06
2023-03-02T10:52:36.702Z,101435.24
2023-03-02T10:55:47.202Z,101433.75
2023-03-02T10:58:54.241Z,101434.77
2023-03-02T11:02:03.003Z,101431.13
2023-03-02T11:05:23.382Z,101426.57
2023-03-02T11:08:33.023Z,101430.98
2023-03-02T11:11:38.633Z,101422.70
2023-03-02T11:14:44.084Z,101417.27
2023-03-02T11:17:50.581Z,101418.43
2023-03-02T11:21:01.055Z,101418.61
2023-03-02T11:24:11.199Z,101414.08
2023-03-02T11:27:22.632Z,101409.98
2023-03-02T11:30:29.851Z,101411.59
2023-03-02T11:33:38.653Z,101405.73
2023-03-02T11:36:47.219Z,101404.09
2023-03-02T11:40:05.105Z,101405.58
2023-03-02T11:43:11.088Z,101404.95
2023-03-02T11:46:24.664Z,101410.92
2023-03-02T11:49:37.770Z,101411.27
2023-03-02T11:52:47.434Z,101406.38
2023-03-02T11:55:55.323Z,101410.17
2023-03-02T11:59:04.844Z,101408.54
2023-03-02T12:02:20.113Z,101401.15
2023-03-02T12:05:27.388Z,101400.72
2023-03-02T12:08:34.885Z,101393.67
2023-03-02T12:11:41.879Z,101387.27
2023-03-02T12:14:47.511Z,101389.42
2023-03-02T12:17:53.114Z,101384.96
2023-03-02T12:21:03.212Z,101387.85
2023-03-02T12:24:24.209Z,101382.48
2023-03-02T12:27:35.496Z,101381.23
2023-03-02T12:34:37.155Z,101369.10
2023-03-02T12:41:57.504Z,101357.41
2023-03-02T12:49:05.683Z,101353.70
2023-03-02T12:52:23.829Z,101350.63
2023-03-02T12:55:29.754Z,101344.42
2023-03-02T12:58:35.325Z,101350.92
2023-03-02T13:01:40.683Z,101347.39
2023-03-02T13:04:52.687Z,101349.30
2023-03-02T13:08:00.055Z,101343.95
2023-03-02T13:11:14.007Z,101340.17
2023-03-02T13:14:25.814Z,101338.63
2023-03-02T13:17:32.042Z,101332.66
2023-03-02T13:20:46.636Z,101331.82
2023-03-02T13:23:52.588Z,101331.09
2023-03-02T13:26:58.705Z,101329.89
2023-03-02T13:30:11.127Z,101326.48
2023-03-02T13:33:22.877Z,101325.11
2023-03-02T13:36:30.167Z,101322.56
2023-03-02T13:39:35.622Z,101317.70
2023-03-02T13:42:41.871Z,101308.69
2023-03-02T13:45:53.895Z,101306.20
2023-03-02T13:49:09.534Z,101303.48
2023-03-02T13:52:36.332Z,101301.79
2023-03-02T13:55:41.764Z,101298.89
2023-03-02T13:58:47.430Z,101300.21
2023-03-02T14:01:52.886Z,101294.23
2023-03-02T14:04:58.692Z,101289.31
2023-03-02T14:08:07.790Z,101280.23
2023-03-02T14:11:14.892Z,101278.48
2023-03-02T14:14:44.521Z,101269.60
2023-03-02T14:18:53.595Z,101259.58
2023-03-02T14:21:59.106Z,101252.56
2023-03-02T14:25:04.735Z,101248.27
2023-03-02T14:28:20.003Z,101242.28
2023-03-02T14:31:25.739Z,101236.45
2023-03-02T14:34:31.298Z,101227.40
2023-03-02T14:37:36.993Z,101222.56
2023-03-02T14:40:42.488Z,101222.17
2023-03-02T14:43:51.093Z,101214.10
2023-03-02T14:46:57.564Z,101218.09
2023-03-02T14:50:02.861Z,101212.51
2023-03-02T14:53:16.936Z,101205.29
2023-03-02T14:56:25.758Z,101201.67
2023-03-02T14:59:31.096Z,101204.73
2023-03-02T15:02:36.642Z,101206.05
2023-03-02T15:05:51.671Z,101206.71
2023-03-02T15:09:24.913Z,101204.83
2023-03-02T15:12:41.403Z,101207.27
2023-03-02T15:16:05.966Z,101207.91
2023-03-02T15:19:32.126Z,101208.45
2023-03-02T15:22:40.283Z,101212.15
2023-03-02T15:25:45.863Z,101211.82
2023-03-02T15:28:52.547Z,101213.67
2023-03-02T15:31:58.245Z,101215.39
2023-03-02T15:35:16.940Z,101213.83
2023-03-02T15:38:22.431Z,101216.56
2023-03-02T15:41:27.958Z,101215.97
2023-03-02T15:44:33.841Z,101215.44
2023-03-02T15:47:42.059Z,101211.06
2023-03-02T15:50:56.006Z,101210.70
2023-03-02T15:54:04.432Z,101209.36
2023-03-02T15:57:11.958Z,101213.51
2023-03-02T16:00:19.612Z,101206.27
2023-03-02T16:03:25.084Z,101204.24
2023-03-02T16:06:33.533Z,101200.96
2023-03-02T16:09:38.932Z,101202.36
2023-03-02T16:12:47.301Z,101203.77
2023-03-02T16:15:53.265Z,101205.48
2023-03-02T16:18:59.097Z,101203.85
2023-03-02T16:22:04.687Z,101207.03
2023-03-02T16:25:20.666Z,101203.89
2023-03-02T16:28:29.471Z,101205.20
2023-03-02T16:31:37.724Z,101202.26
2023-03-02T16:34:46.027Z,101200.35
2023-03-02T16:37:54.641Z,101197.00
2023-03-02T16:41:03.017Z,101197.09
2023-03-02T16:44:08.738Z,101194.27
2023-03-02T16:47:16.594Z,101193.61
2023-03-02T16:50:22.186Z,101194.30
2023-03-02T16:53:30.322Z,101195.91
2023-03-02T16:56:35.908Z,101192.79
2023-03-02T16:59:41.925Z,101192.98
2023-03-02T17:02:47.487Z,101198.66
2023-03-02T17:05:52.938Z,101201.75
2023-03-02T17:08:58.353Z,101202.73
2023-03-02T17:12:09.665Z,101203.64
2023-03-02T17:15:15.132Z,101207.35
2023-03-02T17:18:20.569Z,101206.11
2023-03-02T17:21:25.977Z,101206.36
2023-03-02T17:24:34.565Z,101204.98
2023-03-02T17:27:40.213Z,101207.48
2023-03-02T17:30:48.160Z,101204.50
2023-03-02T17:33:53.751Z,101204.20
2023-03-02T17:37:00.041Z,101206.42
2023-03-02T17:40:05.659Z,101206.13
2023-03-02T17:43:12.521Z,101207.55
2023-03-02T17:46:20.412Z,101209.69
2023-03-02T17:49:38.953Z,101208.62
2023-03-02T17:52:47.184Z,101210.90
2023-03-02T17:55:55.045Z,101209.48
2023-03-02T17:59:02.283Z,101200.77
2023-03-02T18:02:07.671Z,101202.63
2023-03-02T18:05:13.177Z,101205.44
2023-03-02T18:08:18.621Z,101203.81
2023-03-02T18:11:24.791Z,101204.29
2023-03-02T18:14:40.914Z,101205.08
2023-03-02T18:17:46.383Z,101200.34
2023-03-02T18:20:51.857Z,101198.91
2023-03-02T18:23:57.231Z,101201.39
2023-03-02T18:27:02.783Z,101192.06
2023-03-02T18:30:09.180Z,101189.52
2023-03-02T18:33:14.614Z,101191.11
2023-03-02T18:36:20.071Z,101186.25
2023-03-02T18:39:25.653Z,101187.36
2023-03-02T18:42:31.393Z,101186.66
2023-03-02T18:45:36.983Z,101180.30
2023-03-02T18:48:42.532Z,101176.92
2023-03-02T18:51:48.702Z,101182.80
2023-03-02T18:54:57.702Z,101185.27
2023-03-02T18:58:03.325Z,101188.63
2023-03-02T19:01:09.190Z,101183.63
2023-03-02T19:04:15.368Z,101183.09
2023-03-02T19:07:23.225Z,101185.47
2023-03-02T19:10:28.604Z,101187.73
2023-03-02T19:13:36.578Z,101184.02
2023-03-02T19:16:42.217Z,101188.56
2023-03-02T19:19:47.547Z,101193.24
2023-03-02T19:22:53.205Z,101194.81
2023-03-02T19:25:59.085Z,101199.39
2023-03-02T19:29:04.632Z,101197.25
2023-03-02T19:32:10.739Z,101188.52
2023-03-02T19:35:18.016Z,101183.86
2023-03-02T19:38:24.056Z,101187.45
2023-03-02T19:41:29.271Z,101183.33
2023-03-02T19:44:34.771Z,101181.29
2023-03-02T19:48:01.244Z,101180.61
2023-03-02T19:51:07.862Z,101180.51
2023-03-02T19:54:16.776Z,101190.70
2023-03-02T19:57:22.330Z,101188.95
2023-03-02T20:00:29.634Z,101190.34
2023-03-02T20:03:35.103Z,101189.50
2023-03-02T20:06:43.943Z,101186.63
2023-03-02T20:09:51.869Z,101187.86
2023-03-02T20:13:00.892Z,101189.05
2023-03-02T20:16:06.694Z,101187.33
2023-03-02T20:19:14.305Z,101187.02
2023-03-02T20:22:19.858Z,101189.20
2023-03-02T20:25:25.404Z,101192.86
2023-03-02T20:28:33.071Z,101196.21
2023-03-02T20:31:39.638Z,101200.45
2023-03-02T20:34:45.555Z,101199.55
2023-03-02T20:37:51.162Z,101208.58
2023-03-02T20:40:56.740Z,101214.58
2023-03-02T20:44:02.196Z,101214.82
2023-03-02T20:47:09.087Z,101215.76
2023-03-02T20:50:17.112Z,101215.52
2023-03-02T20:53:22.686Z,101210.40
2023-03-02T20:56:28.153Z,101208.69
2023-03-02T20:59:33.651Z,101200.45
2023-03-02T21:02:39.201Z,101196.44
2023-03-02T21:05:45.065Z,101198.59
2023-03-02T21:08:50.868Z,101196.41
2023-03-02T21:11:57.544Z,101203.75
2023-03-02T21:15:03.420Z,101201.34
2023-03-02T21:18:08.733Z,101198.27
2023-03-02T21:21:14.279Z,101195.70
2023-03-02T21:24:20.740Z,101193.92
2023-03-02T21:27:29.099Z,101194.14
2023-03-02T21:30:36.221Z,101192.45
2023-03-02T21:33:41.759Z,101187.58
2023-03-02T21:36:47.786Z,101182.18
2023-03-02T21:39:55.767Z,101181.16
2023-03-02T21:43:05.388Z,101172.17
2023-03-02T21:46:12.075Z,101159.80
2023-03-02T21:49:18.481Z,101155.33
2023-03-02T21:52:27.281Z,101152.34
2023-03-02T21:55:36.439Z,101158.67
2023-03-02T21:58:47.306Z,101161.13
2023-03-02T22:01:52.846Z,101161.20
2023-03-02T22:04:58.409Z,101153.74
2023-03-02T22:08:03.986Z,101150.20
2023-03-02T22:11:13.538Z,101148.69
2023-03-02T22:14:19.010Z,101144.15
2023-03-02T22:17:34.422Z,101146.23
2023-03-02T22:20:40.148Z,101154.77
2023-03-02T22:23:45.866Z,101161.85
2023-03-02T22:26:58.382Z,101168.79
2023-03-02T22:30:16.859Z,101165.79
2023-03-02T22:33:42.594Z,101170.36
2023-03-02T22:36:47.926Z,101165.70
2023-03-02T22:39:55.061Z,101162.20
2023-03-02T22:43:12.490Z,101156.27
2023-03-02T22:46:20.367Z,101146.14
2023-03-02T22:49:25.767Z,101140.20
2023-03-02T22:52:36.953Z,101140.63
2023-03-02T22:55:43.270Z,101135.09
2023-03-02T22:58:53.800Z,101126.78
2023-03-02T23:02:01.167Z,101123.88
2023-03-02T23:05:19.817Z,101125.60
2023-03-02T23:08:26.064Z,101126.02
2023-03-02T23:11:34.539Z,101135.45
2023-03-02T23:14:45.901Z,101120.65
2023-03-02T23:17:51.329Z,101112.86
2023-03-02T23:20:59.739Z,101118.14
2023-03-02T23:24:05.339Z,101113.42
2023-03-02T23:27:10.995Z,101110.29
2023-03-02T23:30:20.687Z,101106.52
2023-03-02T23:33:26.056Z,101118.45
2023-03-02T23:36:51.648Z,101112.75
2023-03-02T23:39:57.078Z,101111.58
2023-03-02T23:43:02.548Z,101103.79
2023-03-02T23:46:08.230Z,101105.70
2023-03-02T23:49:13.698Z,101104.81
2023-03-02T23:52:19.149Z,101103.52
2023-03-02T23:55:24.689Z,101095.20
2023-03-02T23:58:30.163Z,101083.39
